RYR269 EDDN-LHBP
Flight info
| Callsign | RYR269 |
|---|---|
| Flight time | 1h 7m |
| Altitude | 35000 |
| Route | RODIS1G/28 RODIS L604 LAMSI DCT MAREG DCT ANEXA |
| Aircraft | B738/M-SDE2E3FGHIRWXY/LB1 |
Departure
| Time | 2026-05-05 19:41 |
|---|---|
| Airport | Nuremberg Airport (EDDN) |
Arrival
| Time | 2026-05-05 20:49 |
|---|---|
| Airport | Budapest Liszt Ferenc International Airport (LHBP) |
| Time | Latitude | Longitude | Altitude | Speed | Heading |
|---|---|---|---|---|---|
| 2026-05-05 19:18 | 49.49557 | 11.07394 | 1023 ft | 0 kts | 188° |
| 2026-05-05 19:33 | 49.49561 | 11.07395 | 1025 ft | 3 kts | 188° |
| 2026-05-05 19:34 | 49.49585 | 11.07400 | 1025 ft | 2 kts | 188° |
| 2026-05-05 19:34 | 49.49607 | 11.07400 | 1025 ft | 4 kts | 149° |
| 2026-05-05 19:34 | 49.49624 | 11.07373 | 1024 ft | 4 kts | 107° |
| 2026-05-05 19:35 | 49.49626 | 11.07359 | 1024 ft | 1 kts | 98° |
| 2026-05-05 19:37 | 49.49621 | 11.07411 | 1024 ft | 14 kts | 98° |
| 2026-05-05 19:37 | 49.49599 | 11.07628 | 1024 ft | 21 kts | 100° |
| 2026-05-05 19:37 | 49.49577 | 11.07855 | 1026 ft | 21 kts | 99° |
| 2026-05-05 19:37 | 49.49556 | 11.08076 | 1025 ft | 21 kts | 98° |
| 2026-05-05 19:38 | 49.49535 | 11.08274 | 1027 ft | 11 kts | 98° |
| 2026-05-05 19:38 | 49.49567 | 11.08350 | 1030 ft | 10 kts | 19° |
| 2026-05-05 19:38 | 49.49617 | 11.08404 | 1033 ft | 10 kts | 81° |
| 2026-05-05 19:38 | 49.49605 | 11.08532 | 1034 ft | 16 kts | 99° |
| 2026-05-05 19:39 | 49.49586 | 11.08734 | 1036 ft | 21 kts | 98° |
| 2026-05-05 19:39 | 49.49565 | 11.08949 | 1038 ft | 20 kts | 99° |
| 2026-05-05 19:39 | 49.49543 | 11.09156 | 1041 ft | 19 kts | 99° |
| 2026-05-05 19:39 | 49.49533 | 11.09345 | 1044 ft | 16 kts | 75° |
| 2026-05-05 19:40 | 49.49592 | 11.09488 | 1048 ft | 15 kts | 54° |
| 2026-05-05 19:40 | 49.49673 | 11.09567 | 1051 ft | 13 kts | 340° |
| 2026-05-05 19:40 | 49.49705 | 11.09471 | 1051 ft | 0 kts | 279° |
| 2026-05-05 19:40 | 49.49718 | 11.09336 | 1048 ft | 49 kts | 278° |
| 2026-05-05 19:41 | 49.49813 | 11.08367 | 1034 ft | 130 kts | 278° |
| 2026-05-05 19:41 | 49.49956 | 11.06781 | 1453 ft | 158 kts | 277° |
| 2026-05-05 19:41 | 49.50110 | 11.05142 | 2573 ft | 149 kts | 278° |
| 2026-05-05 19:41 | 49.50271 | 11.03519 | 3358 ft | 164 kts | 277° |
| 2026-05-05 19:42 | 49.50453 | 11.01589 | 3682 ft | 198 kts | 276° |
| 2026-05-05 19:42 | 49.50659 | 10.99347 | 3957 ft | 222 kts | 276° |
| 2026-05-05 19:42 | 49.50898 | 10.96955 | 4495 ft | 230 kts | 281° |
| 2026-05-05 19:42 | 49.51679 | 10.94765 | 5134 ft | 240 kts | 308° |
| 2026-05-05 19:43 | 49.53061 | 10.93194 | 5634 ft | 262 kts | 330° |
| 2026-05-05 19:43 | 49.54888 | 10.92465 | 6259 ft | 282 kts | 352° |
| 2026-05-05 19:43 | 49.56871 | 10.92445 | 7235 ft | 287 kts | 357° |
| 2026-05-05 19:43 | 49.58881 | 10.92549 | 8251 ft | 291 kts | 358° |
| 2026-05-05 19:44 | 49.60928 | 10.92645 | 9247 ft | 298 kts | 357° |
| 2026-05-05 19:44 | 49.62992 | 10.92729 | 10196 ft | 305 kts | 357° |
| 2026-05-05 19:44 | 49.65199 | 10.92839 | 10607 ft | 334 kts | 3° |
| 2026-05-05 19:44 | 49.67462 | 10.94050 | 11229 ft | 357 kts | 31° |
| 2026-05-05 19:45 | 49.69219 | 10.96783 | 12203 ft | 363 kts | 59° |
| 2026-05-05 19:45 | 49.70014 | 11.00450 | 13286 ft | 362 kts | 87° |
| 2026-05-05 19:45 | 49.69875 | 11.04364 | 14333 ft | 361 kts | 100° |
| 2026-05-05 19:45 | 49.69539 | 11.08232 | 15295 ft | 366 kts | 100° |
| 2026-05-05 19:46 | 49.69252 | 11.12106 | 15700 ft | 369 kts | 98° |
| 2026-05-05 19:46 | 49.69020 | 11.16103 | 15820 ft | 370 kts | 97° |
| 2026-05-05 19:46 | 49.68775 | 11.20009 | 15819 ft | 369 kts | 103° |
| 2026-05-05 19:46 | 49.67889 | 11.23657 | 15835 ft | 361 kts | 122° |
| 2026-05-05 19:47 | 49.66661 | 11.27030 | 15817 ft | 360 kts | 123° |
| 2026-05-05 19:47 | 49.65422 | 11.30390 | 15815 ft | 361 kts | 123° |
| 2026-05-05 19:47 | 49.64181 | 11.33774 | 16038 ft | 366 kts | 123° |
| 2026-05-05 19:47 | 49.62934 | 11.37205 | 17001 ft | 367 kts | 122° |
| 2026-05-05 19:48 | 49.61699 | 11.40630 | 18211 ft | 364 kts | 122° |
| 2026-05-05 19:48 | 49.60467 | 11.44056 | 19116 ft | 367 kts | 122° |
| 2026-05-05 19:48 | 49.59219 | 11.47527 | 19917 ft | 373 kts | 122° |
| 2026-05-05 19:48 | 49.57955 | 11.51037 | 20736 ft | 377 kts | 122° |
| 2026-05-05 19:49 | 49.56680 | 11.54593 | 21567 ft | 381 kts | 120° |
| 2026-05-05 19:49 | 49.55923 | 11.57111 | 22110 ft | 386 kts | 115° |
| 2026-05-05 19:49 | 49.54719 | 11.62300 | 23164 ft | 392 kts | 111° |
| 2026-05-05 19:49 | 49.53872 | 11.66315 | 23845 ft | 396 kts | 111° |
| 2026-05-05 19:50 | 49.53011 | 11.70358 | 24503 ft | 399 kts | 111° |
| 2026-05-05 19:50 | 49.52118 | 11.74426 | 25112 ft | 403 kts | 112° |
| 2026-05-05 19:50 | 49.51196 | 11.78515 | 25714 ft | 406 kts | 112° |
| 2026-05-05 19:50 | 49.50254 | 11.82632 | 26332 ft | 409 kts | 112° |
| 2026-05-05 19:51 | 49.49301 | 11.86773 | 26947 ft | 412 kts | 113° |
| 2026-05-05 19:51 | 49.48336 | 11.90947 | 27530 ft | 416 kts | 113° |
| 2026-05-05 19:51 | 49.47363 | 11.95149 | 28100 ft | 419 kts | 113° |
| 2026-05-05 19:51 | 49.46384 | 11.99381 | 28661 ft | 422 kts | 113° |
| 2026-05-05 19:52 | 49.45397 | 12.03647 | 29239 ft | 425 kts | 113° |
| 2026-05-05 19:52 | 49.44409 | 12.07918 | 29954 ft | 423 kts | 113° |
| 2026-05-05 19:52 | 49.43428 | 12.12155 | 30622 ft | 420 kts | 114° |
| 2026-05-05 19:52 | 49.42294 | 12.16277 | 31106 ft | 417 kts | 123° |
| 2026-05-05 19:53 | 49.40692 | 12.19962 | 31570 ft | 414 kts | 133° |
| 2026-05-05 19:53 | 49.38865 | 12.23366 | 32149 ft | 413 kts | 134° |
| 2026-05-05 19:53 | 49.37030 | 12.26746 | 32722 ft | 412 kts | 134° |
| 2026-05-05 19:53 | 49.35195 | 12.30129 | 33260 ft | 412 kts | 134° |
| 2026-05-05 19:54 | 49.33365 | 12.33517 | 33757 ft | 413 kts | 134° |
| 2026-05-05 19:54 | 49.31540 | 12.36911 | 34220 ft | 413 kts | 134° |
| 2026-05-05 19:54 | 49.29719 | 12.40309 | 34671 ft | 413 kts | 134° |
| 2026-05-05 19:54 | 49.27881 | 12.43741 | 34785 ft | 418 kts | 134° |
| 2026-05-05 19:55 | 49.26039 | 12.47181 | 34796 ft | 417 kts | 134° |
| 2026-05-05 19:55 | 49.22377 | 12.54016 | 34786 ft | 416 kts | 134° |
| 2026-05-05 19:56 | 49.18690 | 12.60878 | 34809 ft | 419 kts | 134° |
| 2026-05-05 19:56 | 49.14971 | 12.67779 | 34813 ft | 422 kts | 134° |
| 2026-05-05 19:57 | 49.11236 | 12.74695 | 34798 ft | 422 kts | 134° |
| 2026-05-05 19:57 | 49.07504 | 12.81587 | 34786 ft | 420 kts | 134° |
| 2026-05-05 19:58 | 49.03787 | 12.88436 | 34799 ft | 418 kts | 134° |
| 2026-05-05 19:58 | 49.00087 | 12.95233 | 34803 ft | 417 kts | 135° |
| 2026-05-05 19:59 | 48.96383 | 13.02017 | 34810 ft | 416 kts | 135° |
| 2026-05-05 19:59 | 48.92678 | 13.08786 | 34804 ft | 417 kts | 135° |
| 2026-05-05 20:00 | 48.88966 | 13.15552 | 34808 ft | 417 kts | 135° |
| 2026-05-05 20:00 | 48.85242 | 13.22323 | 34799 ft | 418 kts | 135° |
| 2026-05-05 20:01 | 48.81508 | 13.29094 | 34804 ft | 419 kts | 135° |
| 2026-05-05 20:01 | 48.77761 | 13.35873 | 34809 ft | 421 kts | 135° |
| 2026-05-05 20:02 | 48.73990 | 13.42679 | 34801 ft | 422 kts | 135° |
| 2026-05-05 20:02 | 48.70230 | 13.49451 | 34802 ft | 423 kts | 135° |
| 2026-05-05 20:03 | 48.66589 | 13.56489 | 34796 ft | 430 kts | 125° |
| 2026-05-05 20:03 | 48.64373 | 13.64970 | 34795 ft | 440 kts | 105° |
| 2026-05-05 20:04 | 48.63264 | 13.74090 | 34797 ft | 441 kts | 103° |
| 2026-05-05 20:04 | 48.62210 | 13.83208 | 34803 ft | 440 kts | 103° |
| 2026-05-05 20:05 | 48.61118 | 13.92316 | 34793 ft | 440 kts | 104° |
| 2026-05-05 20:05 | 48.59998 | 14.01379 | 34771 ft | 439 kts | 103° |
| 2026-05-05 20:06 | 48.58863 | 14.10434 | 34785 ft | 438 kts | 103° |
| 2026-05-05 20:06 | 48.57722 | 14.19469 | 34790 ft | 438 kts | 103° |
| 2026-05-05 20:07 | 48.56575 | 14.28498 | 34783 ft | 438 kts | 103° |
| 2026-05-05 20:07 | 48.55421 | 14.37525 | 34787 ft | 438 kts | 104° |
| 2026-05-05 20:08 | 48.54259 | 14.46548 | 34775 ft | 438 kts | 103° |
| 2026-05-05 20:08 | 48.53091 | 14.55568 | 34779 ft | 438 kts | 103° |
| 2026-05-05 20:09 | 48.51913 | 14.64603 | 34777 ft | 439 kts | 103° |
| 2026-05-05 20:09 | 48.50727 | 14.73643 | 34771 ft | 439 kts | 103° |
| 2026-05-05 20:10 | 48.49535 | 14.82677 | 34769 ft | 440 kts | 104° |
| 2026-05-05 20:10 | 48.48334 | 14.91712 | 34754 ft | 440 kts | 103° |
| 2026-05-05 20:11 | 48.47331 | 14.99219 | 34761 ft | 440 kts | 104° |
| 2026-05-05 20:11 | 48.46117 | 15.08251 | 34753 ft | 440 kts | 104° |
| 2026-05-05 20:12 | 48.44893 | 15.17294 | 34754 ft | 440 kts | 104° |
| 2026-05-05 20:12 | 48.43664 | 15.26323 | 34733 ft | 440 kts | 104° |
| 2026-05-05 20:13 | 48.42428 | 15.35345 | 34746 ft | 440 kts | 104° |
| 2026-05-05 20:13 | 48.41187 | 15.44348 | 34743 ft | 439 kts | 103° |
| 2026-05-05 20:14 | 48.39939 | 15.53354 | 34735 ft | 439 kts | 104° |
| 2026-05-05 20:14 | 48.38683 | 15.62356 | 34741 ft | 439 kts | 104° |
| 2026-05-05 20:15 | 48.37421 | 15.71343 | 34730 ft | 439 kts | 104° |
| 2026-05-05 20:15 | 48.36153 | 15.80323 | 34735 ft | 438 kts | 104° |
| 2026-05-05 20:16 | 48.34881 | 15.89280 | 34745 ft | 438 kts | 104° |
| 2026-05-05 20:16 | 48.33609 | 15.98176 | 34738 ft | 438 kts | 104° |
| 2026-05-05 20:17 | 48.32322 | 16.07133 | 34741 ft | 438 kts | 104° |
| 2026-05-05 20:17 | 48.31030 | 16.16071 | 34741 ft | 437 kts | 104° |
| 2026-05-05 20:18 | 48.29723 | 16.25052 | 34753 ft | 437 kts | 104° |
| 2026-05-05 20:18 | 48.28420 | 16.33958 | 34760 ft | 437 kts | 104° |
| 2026-05-05 20:19 | 48.27121 | 16.42789 | 34771 ft | 436 kts | 104° |
| 2026-05-05 20:19 | 48.25798 | 16.51732 | 34767 ft | 436 kts | 104° |
| 2026-05-05 20:20 | 48.24475 | 16.60613 | 34766 ft | 437 kts | 104° |
| 2026-05-05 20:20 | 48.23153 | 16.69443 | 34764 ft | 437 kts | 104° |
| 2026-05-05 20:20 | 48.22476 | 16.73951 | 34435 ft | 435 kts | 104° |
| 2026-05-05 20:21 | 48.21825 | 16.78281 | 34099 ft | 427 kts | 104° |
| 2026-05-05 20:21 | 48.21169 | 16.82630 | 33731 ft | 422 kts | 105° |
| 2026-05-05 20:21 | 48.20522 | 16.86910 | 33310 ft | 417 kts | 105° |
| 2026-05-05 20:21 | 48.19874 | 16.91179 | 32944 ft | 411 kts | 104° |
| 2026-05-05 20:22 | 48.19250 | 16.95272 | 32581 ft | 406 kts | 105° |
| 2026-05-05 20:22 | 48.18547 | 16.99333 | 32238 ft | 400 kts | 109° |
| 2026-05-05 20:22 | 48.17746 | 17.03229 | 31884 ft | 395 kts | 110° |
| 2026-05-05 20:22 | 48.16897 | 17.07123 | 31526 ft | 390 kts | 110° |
| 2026-05-05 20:23 | 48.16047 | 17.10962 | 31177 ft | 387 kts | 111° |
| 2026-05-05 20:23 | 48.15207 | 17.14772 | 30821 ft | 383 kts | 111° |
| 2026-05-05 20:23 | 48.14380 | 17.18546 | 30479 ft | 380 kts | 110° |
| 2026-05-05 20:23 | 48.13565 | 17.22284 | 30136 ft | 377 kts | 111° |
| 2026-05-05 20:24 | 48.12757 | 17.26002 | 29781 ft | 374 kts | 111° |
| 2026-05-05 20:24 | 48.11959 | 17.29685 | 29390 ft | 370 kts | 110° |
| 2026-05-05 20:24 | 48.11167 | 17.33331 | 29031 ft | 366 kts | 110° |
| 2026-05-05 20:24 | 48.10384 | 17.36938 | 28680 ft | 363 kts | 110° |
| 2026-05-05 20:25 | 48.09605 | 17.40522 | 28336 ft | 362 kts | 110° |
| 2026-05-05 20:25 | 48.08817 | 17.44134 | 27986 ft | 372 kts | 110° |
| 2026-05-05 20:25 | 48.07999 | 17.47870 | 27619 ft | 380 kts | 110° |
| 2026-05-05 20:25 | 48.07183 | 17.51603 | 27240 ft | 376 kts | 110° |
| 2026-05-05 20:26 | 48.06377 | 17.55290 | 26876 ft | 371 kts | 110° |
| 2026-05-05 20:26 | 48.05581 | 17.58929 | 26520 ft | 366 kts | 110° |
| 2026-05-05 20:26 | 48.04793 | 17.62518 | 26185 ft | 362 kts | 110° |
| 2026-05-05 20:26 | 48.04012 | 17.66071 | 25841 ft | 358 kts | 111° |
| 2026-05-05 20:27 | 48.03238 | 17.69584 | 25488 ft | 354 kts | 111° |
| 2026-05-05 20:27 | 48.02469 | 17.73068 | 25152 ft | 351 kts | 111° |
| 2026-05-05 20:27 | 48.01707 | 17.76509 | 24823 ft | 348 kts | 111° |
| 2026-05-05 20:27 | 48.00951 | 17.79922 | 24492 ft | 345 kts | 111° |
| 2026-05-05 20:28 | 48.00200 | 17.83305 | 24163 ft | 342 kts | 111° |
| 2026-05-05 20:28 | 47.99450 | 17.86680 | 23844 ft | 343 kts | 111° |
| 2026-05-05 20:28 | 47.98698 | 17.90056 | 23509 ft | 343 kts | 111° |
| 2026-05-05 20:28 | 47.97937 | 17.93462 | 23147 ft | 350 kts | 111° |
| 2026-05-05 20:29 | 47.97158 | 17.96943 | 22767 ft | 355 kts | 111° |
| 2026-05-05 20:29 | 47.96379 | 18.00424 | 22387 ft | 352 kts | 111° |
| 2026-05-05 20:29 | 47.95611 | 18.03858 | 22030 ft | 347 kts | 111° |
| 2026-05-05 20:29 | 47.94850 | 18.07257 | 21689 ft | 343 kts | 111° |
| 2026-05-05 20:30 | 47.94098 | 18.10606 | 21372 ft | 338 kts | 111° |
| 2026-05-05 20:30 | 47.93355 | 18.13905 | 21039 ft | 334 kts | 111° |
| 2026-05-05 20:30 | 47.92618 | 18.17174 | 20717 ft | 330 kts | 111° |
| 2026-05-05 20:30 | 47.91890 | 18.20401 | 20398 ft | 327 kts | 111° |
| 2026-05-05 20:31 | 47.91166 | 18.23598 | 20073 ft | 324 kts | 111° |
| 2026-05-05 20:31 | 47.90449 | 18.26765 | 19763 ft | 321 kts | 111° |
| 2026-05-05 20:31 | 47.89737 | 18.29902 | 19452 ft | 319 kts | 111° |
| 2026-05-05 20:31 | 47.89028 | 18.33022 | 19135 ft | 316 kts | 112° |
| 2026-05-05 20:32 | 47.88326 | 18.36113 | 18820 ft | 314 kts | 112° |
| 2026-05-05 20:32 | 47.87627 | 18.39183 | 18510 ft | 312 kts | 112° |
| 2026-05-05 20:32 | 47.86933 | 18.42224 | 18216 ft | 310 kts | 112° |
| 2026-05-05 20:32 | 47.86239 | 18.45258 | 17864 ft | 308 kts | 112° |
| 2026-05-05 20:33 | 47.85316 | 18.48078 | 17508 ft | 300 kts | 130° |
| 2026-05-05 20:33 | 47.83876 | 18.50224 | 17223 ft | 290 kts | 147° |
| 2026-05-05 20:33 | 47.82208 | 18.51876 | 16922 ft | 288 kts | 151° |
| 2026-05-05 20:33 | 47.80502 | 18.53466 | 16627 ft | 290 kts | 151° |
| 2026-05-05 20:34 | 47.78774 | 18.55072 | 16315 ft | 296 kts | 151° |
| 2026-05-05 20:34 | 47.77012 | 18.56723 | 15994 ft | 302 kts | 151° |
| 2026-05-05 20:34 | 47.75238 | 18.58402 | 15662 ft | 301 kts | 151° |
| 2026-05-05 20:34 | 47.73480 | 18.60078 | 15341 ft | 298 kts | 151° |
| 2026-05-05 20:35 | 47.71752 | 18.61725 | 15027 ft | 295 kts | 151° |
| 2026-05-05 20:35 | 47.70025 | 18.63370 | 14711 ft | 293 kts | 151° |
| 2026-05-05 20:35 | 47.68404 | 18.65128 | 14417 ft | 294 kts | 141° |
| 2026-05-05 20:35 | 47.67001 | 18.67338 | 14190 ft | 295 kts | 135° |
| 2026-05-05 20:36 | 47.65641 | 18.69681 | 13957 ft | 296 kts | 135° |
| 2026-05-05 20:36 | 47.64290 | 18.71995 | 13724 ft | 297 kts | 135° |
| 2026-05-05 20:36 | 47.62955 | 18.74233 | 13466 ft | 292 kts | 136° |
| 2026-05-05 20:36 | 47.61575 | 18.76512 | 13173 ft | 298 kts | 136° |
| 2026-05-05 20:37 | 47.60139 | 18.78863 | 12877 ft | 322 kts | 136° |
| 2026-05-05 20:37 | 47.58617 | 18.81357 | 12636 ft | 330 kts | 136° |
| 2026-05-05 20:37 | 47.57058 | 18.83917 | 12276 ft | 329 kts | 136° |
| 2026-05-05 20:37 | 47.55555 | 18.86385 | 11920 ft | 325 kts | 136° |
| 2026-05-05 20:38 | 47.54047 | 18.88855 | 11564 ft | 323 kts | 137° |
| 2026-05-05 20:38 | 47.52546 | 18.91307 | 11208 ft | 320 kts | 137° |
| 2026-05-05 20:38 | 47.51049 | 18.93752 | 10753 ft | 322 kts | 137° |
| 2026-05-05 20:38 | 47.49544 | 18.96206 | 10335 ft | 321 kts | 137° |
| 2026-05-05 20:39 | 47.48063 | 18.98624 | 10072 ft | 311 kts | 137° |
| 2026-05-05 20:39 | 47.46645 | 19.00942 | 9949 ft | 296 kts | 138° |
| 2026-05-05 20:39 | 47.45303 | 19.03133 | 9779 ft | 285 kts | 138° |
| 2026-05-05 20:39 | 47.43935 | 19.05346 | 9259 ft | 298 kts | 138° |
| 2026-05-05 20:40 | 47.42520 | 19.07632 | 8827 ft | 305 kts | 137° |
| 2026-05-05 20:40 | 47.41079 | 19.09966 | 8466 ft | 308 kts | 137° |
| 2026-05-05 20:40 | 47.39637 | 19.12307 | 8106 ft | 307 kts | 137° |
| 2026-05-05 20:40 | 47.38221 | 19.14610 | 7744 ft | 298 kts | 137° |
| 2026-05-05 20:41 | 47.36843 | 19.16844 | 7414 ft | 291 kts | 137° |
| 2026-05-05 20:41 | 47.35496 | 19.19024 | 7089 ft | 284 kts | 137° |
| 2026-05-05 20:41 | 47.34179 | 19.21153 | 6774 ft | 278 kts | 136° |
| 2026-05-05 20:41 | 47.32882 | 19.23243 | 6426 ft | 275 kts | 136° |
| 2026-05-05 20:42 | 47.31604 | 19.25305 | 6103 ft | 272 kts | 136° |
| 2026-05-05 20:42 | 47.30327 | 19.27363 | 5786 ft | 271 kts | 136° |
| 2026-05-05 20:42 | 47.29055 | 19.29413 | 5473 ft | 271 kts | 137° |
| 2026-05-05 20:42 | 47.27784 | 19.31458 | 5160 ft | 271 kts | 137° |
| 2026-05-05 20:43 | 47.26516 | 19.33496 | 4857 ft | 270 kts | 137° |
| 2026-05-05 20:43 | 47.25249 | 19.35532 | 4621 ft | 267 kts | 137° |
| 2026-05-05 20:43 | 47.24211 | 19.37772 | 4460 ft | 268 kts | 114° |
| 2026-05-05 20:43 | 47.23992 | 19.40460 | 4394 ft | 266 kts | 85° |
| 2026-05-05 20:44 | 47.24577 | 19.43033 | 4296 ft | 268 kts | 60° |
| 2026-05-05 20:44 | 47.25783 | 19.45107 | 4197 ft | 269 kts | 43° |
| 2026-05-05 20:44 | 47.27175 | 19.46971 | 4081 ft | 273 kts | 42° |
| 2026-05-05 20:44 | 47.28671 | 19.48703 | 3794 ft | 273 kts | 24° |
| 2026-05-05 20:45 | 47.31980 | 19.47896 | 3343 ft | 243 kts | 306° |
| 2026-05-05 20:45 | 47.32837 | 19.45827 | 3142 ft | 234 kts | 297° |
| 2026-05-05 20:45 | 47.33740 | 19.43839 | 2878 ft | 231 kts | 302° |
| 2026-05-05 20:46 | 47.34717 | 19.42015 | 2627 ft | 223 kts | 302° |
| 2026-05-05 20:46 | 47.35675 | 19.40301 | 2428 ft | 210 kts | 301° |
| 2026-05-05 20:46 | 47.36589 | 19.38666 | 2165 ft | 204 kts | 303° |
| 2026-05-05 20:46 | 47.37506 | 19.37165 | 1892 ft | 189 kts | 306° |
| 2026-05-05 20:47 | 47.38355 | 19.35793 | 1651 ft | 174 kts | 306° |
| 2026-05-05 20:47 | 47.39131 | 19.34534 | 1440 ft | 156 kts | 306° |
| 2026-05-05 20:47 | 47.39817 | 19.33420 | 1221 ft | 139 kts | 306° |
| 2026-05-05 20:47 | 47.40444 | 19.32405 | 1034 ft | 131 kts | 308° |
| 2026-05-05 20:48 | 47.41055 | 19.31422 | 879 ft | 131 kts | 308° |
| 2026-05-05 20:48 | 47.41675 | 19.30404 | 640 ft | 134 kts | 309° |
| 2026-05-05 20:48 | 47.42287 | 19.29413 | 481 ft | 129 kts | 311° |
| 2026-05-05 20:48 | 47.42824 | 19.28526 | 450 ft | 92 kts | 312° |
| 2026-05-05 20:49 | 47.43115 | 19.28046 | 460 ft | 45 kts | 312° |
| 2026-05-05 20:49 | 47.43277 | 19.27775 | 463 ft | 27 kts | 305° |
| 2026-05-05 20:49 | 47.43349 | 19.27536 | 463 ft | 25 kts | 286° |
| 2026-05-05 20:49 | 47.43387 | 19.27298 | 459 ft | 24 kts | 282° |
| 2026-05-05 20:50 | 47.43416 | 19.27106 | 456 ft | 8 kts | 283° |
| 2026-05-05 20:50 | 47.43416 | 19.27103 | 456 ft | 0 kts | 283° |
| 2026-05-05 20:51 | 47.43421 | 19.27067 | 458 ft | 11 kts | 283° |
| 2026-05-05 20:51 | 47.43495 | 19.26889 | 457 ft | 26 kts | 312° |
| 2026-05-05 20:51 | 47.43626 | 19.26679 | 456 ft | 27 kts | 312° |
| 2026-05-05 20:52 | 47.43730 | 19.26506 | 457 ft | 18 kts | 314° |
| 2026-05-05 20:52 | 47.43728 | 19.26384 | 457 ft | 14 kts | 221° |
| 2026-05-05 20:52 | 47.43656 | 19.26290 | 457 ft | 15 kts | 222° |
| 2026-05-05 20:52 | 47.43568 | 19.26172 | 456 ft | 20 kts | 222° |
| 2026-05-05 20:53 | 47.43494 | 19.26072 | 456 ft | 23 kts | 222° |
| 2026-05-05 20:53 | 47.43399 | 19.25887 | 456 ft | 7 kts | 221° |
| 2026-05-05 20:53 | 47.43372 | 19.25852 | 456 ft | 2 kts | 221° |
| 2026-05-05 20:53 | 47.43366 | 19.25844 | 456 ft | 1 kts | 222° |
| 2026-05-05 20:54 | 47.43362 | 19.25839 | 455 ft | 0 kts | 222° |